sensor_id;sensor_type;location;lat;lon;timestamp;P1;durP1;ratioP1;P2;durP2;ratioP2
57609;SDS011;43435;46.186;9.024;2023-03-01T08:20:00;7.05;;;4.10;;
57609;SDS011;43435;46.186;9.024;2023-03-01T08:22:25;5.83;;;3.67;;
57609;SDS011;43435;46.186;9.024;2023-03-01T08:24:50;7.80;;;3.77;;
57609;SDS011;43435;46.186;9.024;2023-03-01T08:27:16;7.50;;;4.20;;
57609;SDS011;43435;46.186;9.024;2023-03-01T08:29:41;9.52;;;4.40;;
57609;SDS011;43435;46.186;9.024;2023-03-01T08:32:06;7.50;;;4.18;;
57609;SDS011;43435;46.186;9.024;2023-03-01T08:34:32;6.45;;;3.80;;
57609;SDS011;43435;46.186;9.024;2023-03-01T08:36:57;7.85;;;4.43;;
57609;SDS011;43435;46.186;9.024;2023-03-01T08:39:22;6.72;;;3.53;;
57609;SDS011;43435;46.186;9.024;2023-03-01T08:41:47;7.10;;;3.60;;
57609;SDS011;43435;46.186;9.024;2023-03-01T08:44:13;11.53;;;3.80;;
57609;SDS011;43435;46.186;9.024;2023-03-01T08:46:40;6.30;;;3.65;;
57609;SDS011;43435;46.186;9.024;2023-03-01T08:49:06;5.18;;;3.22;;
57609;SDS011;43435;46.186;9.024;2023-03-01T08:51:32;6.68;;;3.92;;
57609;SDS011;43435;46.186;9.024;2023-03-01T08:54:01;6.57;;;3.42;;
57609;SDS011;43435;46.186;9.024;2023-03-01T08:56:26;4.95;;;3.10;;
57609;SDS011;43435;46.186;9.024;2023-03-01T08:58:51;5.67;;;2.77;;
57609;SDS011;43435;46.186;9.024;2023-03-01T09:01:17;5.67;;;2.97;;
57609;SDS011;43435;46.186;9.024;2023-03-01T09:03:43;5.15;;;2.95;;
57609;SDS011;43435;46.186;9.024;2023-03-01T09:06:09;5.25;;;2.78;;
57609;SDS011;43435;46.186;9.024;2023-03-01T09:08:38;5.78;;;3.13;;
57609;SDS011;43435;46.186;9.024;2023-03-01T09:11:08;5.70;;;3.38;;
57609;SDS011;43435;46.186;9.024;2023-03-01T09:13:33;6.18;;;2.72;;
57609;SDS011;43435;46.186;9.024;2023-03-01T09:15:59;3.85;;;2.53;;
57609;SDS011;43435;46.186;9.024;2023-03-01T09:18:25;4.28;;;3.03;;
57609;SDS011;43435;46.186;9.024;2023-03-01T09:20:50;5.07;;;2.97;;
57609;SDS011;43435;46.186;9.024;2023-03-01T09:23:15;4.63;;;2.90;;
57609;SDS011;43435;46.186;9.024;2023-03-01T09:25:40;3.75;;;2.75;;
57609;SDS011;43435;46.186;9.024;2023-03-01T09:28:06;5.72;;;3.25;;
57609;SDS011;43435;46.186;9.024;2023-03-01T09:30:31;5.03;;;2.60;;
57609;SDS011;43435;46.186;9.024;2023-03-01T09:32:56;4.57;;;2.90;;
57609;SDS011;43435;46.186;9.024;2023-03-01T09:35:22;5.03;;;2.60;;
57609;SDS011;43435;46.186;9.024;2023-03-01T09:37:48;4.65;;;2.58;;
57609;SDS011;43435;46.186;9.024;2023-03-01T09:40:15;3.28;;;2.10;;
57609;SDS011;43435;46.186;9.024;2023-03-01T09:43:16;3.67;;;1.95;;
57609;SDS011;43435;46.186;9.024;2023-03-01T09:45:33;3.70;;;2.00;;
57609;SDS011;43435;46.186;9.024;2023-03-01T09:47:59;3.17;;;2.15;;
57609;SDS011;43435;46.186;9.024;2023-03-01T11:54:06;3.63;;;2.40;;
57609;SDS011;43435;46.186;9.024;2023-03-01T11:56:35;3.28;;;2.05;;
57609;SDS011;43435;46.186;9.024;2023-03-01T12:01:47;5.70;;;2.60;;
57609;SDS011;43435;46.186;9.024;2023-03-01T12:07:00;3.88;;;2.40;;
57609;SDS011;43435;46.186;9.024;2023-03-01T12:17:12;4.53;;;2.70;;
57609;SDS011;43435;46.186;9.024;2023-03-01T12:22:32;4.25;;;2.20;;
57609;SDS011;43435;46.186;9.024;2023-03-01T12:32:57;4.63;;;2.20;;
57609;SDS011;43435;46.186;9.024;2023-03-01T12:35:36;3.72;;;2.50;;
57609;SDS011;43435;46.186;9.024;2023-03-01T22:14:20;28.40;;;14.15;;
57609;SDS011;43435;46.186;9.024;2023-03-01T22:16:46;28.75;;;14.43;;
57609;SDS011;43435;46.186;9.024;2023-03-01T22:19:12;30.27;;;15.10;;
57609;SDS011;43435;46.186;9.024;2023-03-01T22:21:38;30.55;;;15.10;;
57609;SDS011;43435;46.186;9.024;2023-03-01T22:24:04;32.67;;;14.30;;
57609;SDS011;43435;46.186;9.024;2023-03-01T22:26:34;27.83;;;13.52;;
57609;SDS011;43435;46.186;9.024;2023-03-01T22:29:02;29.02;;;14.15;;
57609;SDS011;43435;46.186;9.024;2023-03-01T22:31:28;31.90;;;13.77;;
57609;SDS011;43435;46.186;9.024;2023-03-01T22:33:54;31.20;;;15.00;;
57609;SDS011;43435;46.186;9.024;2023-03-01T22:36:20;29.65;;;15.10;;
57609;SDS011;43435;46.186;9.024;2023-03-01T22:38:45;28.20;;;14.07;;
57609;SDS011;43435;46.186;9.024;2023-03-01T22:41:10;29.50;;;14.67;;
57609;SDS011;43435;46.186;9.024;2023-03-01T22:43:35;30.60;;;14.60;;
57609;SDS011;43435;46.186;9.024;2023-03-01T22:46:16;30.25;;;14.35;;
57609;SDS011;43435;46.186;9.024;2023-03-01T22:48:42;32.65;;;14.07;;
57609;SDS011;43435;46.186;9.024;2023-03-01T22:51:12;26.38;;;14.38;;
57609;SDS011;43435;46.186;9.024;2023-03-01T22:53:37;31.25;;;15.20;;
57609;SDS011;43435;46.186;9.024;2023-03-01T22:56:09;36.37;;;15.13;;
57609;SDS011;43435;46.186;9.024;2023-03-01T22:58:34;29.25;;;13.45;;
57609;SDS011;43435;46.186;9.024;2023-03-01T23:00:59;29.87;;;14.50;;
57609;SDS011;43435;46.186;9.024;2023-03-01T23:03:25;33.00;;;15.53;;
57609;SDS011;43435;46.186;9.024;2023-03-01T23:05:50;32.87;;;14.30;;
57609;SDS011;43435;46.186;9.024;2023-03-01T23:08:15;27.93;;;14.30;;
57609;SDS011;43435;46.186;9.024;2023-03-01T23:10:40;27.37;;;13.43;;
57609;SDS011;43435;46.186;9.024;2023-03-01T23:13:05;29.33;;;14.73;;
57609;SDS011;43435;46.186;9.024;2023-03-01T23:15:30;31.03;;;15.50;;
57609;SDS011;43435;46.186;9.024;2023-03-01T23:17:56;27.33;;;13.97;;
57609;SDS011;43435;46.186;9.024;2023-03-01T23:20:21;25.23;;;14.10;;
57609;SDS011;43435;46.186;9.024;2023-03-01T23:22:46;29.63;;;13.13;;
57609;SDS011;43435;46.186;9.024;2023-03-01T23:25:11;28.43;;;14.87;;
57609;SDS011;43435;46.186;9.024;2023-03-01T23:27:37;28.33;;;15.02;;
57609;SDS011;43435;46.186;9.024;2023-03-01T23:30:03;30.67;;;14.32;;
57609;SDS011;43435;46.186;9.024;2023-03-01T23:32:28;27.52;;;13.68;;
57609;SDS011;43435;46.186;9.024;2023-03-01T23:34:54;33.10;;;15.70;;
